Time;durP1;ratioP1;P1;durP2;ratioP2;P2;SDS_P1;SDS_P2;PMS_P1;PMS_P2;Temp;Humidity;BMP_temperature;BMP_pressure;BME280_temperature;BME280_humidity;BME280_pressure;Samples;Min_cycle;Max_cycle;Signal;HPM_P1;HPM_P2
2022/04/17 00:00:46;;;;;;;5.97;3.30;;;3.90;99.90;;;;;;5051139;28;20197;-87
2022/04/17 00:03:12;;;;;;;15.05;4.82;;;3.80;99.90;;;;;;5043120;28;20197;-84
2022/04/17 00:05:38;;;;;;;4.10;3.60;;;;;;;;;;5037993;28;20166;-86
2022/04/17 00:08:04;;;;;;;6.32;3.97;;;4.10;99.90;;;;;;5038024;28;20181;-83
2022/04/17 00:10:30;;;;;;;4.97;3.37;;;4.10;99.90;;;;;;5038853;28;20177;-83
2022/04/17 00:12:56;;;;;;;5.40;3.40;;;4.20;99.90;;;;;;5055587;28;20927;-88
2022/04/17 00:15:21;;;;;;;5.37;3.67;;;4.20;99.90;;;;;;5056618;28;20181;-83
2022/04/17 00:17:47;;;;;;;4.93;3.50;;;;;;;;;;5038221;28;20708;-87
2022/04/17 00:20:15;;;;;;;4.43;3.40;;;4.20;99.90;;;;;;5060686;28;20851;-86
2022/04/17 00:22:40;;;;;;;9.70;3.97;;;4.20;99.90;;;;;;5032972;28;20472;-87
2022/04/17 00:25:07;;;;;;;4.67;3.67;;;4.20;99.90;;;;;;5041364;28;20201;-88
2022/04/17 00:27:33;;;;;;;7.97;3.55;;;4.20;99.90;;;;;;5046879;28;20189;-88
2022/04/17 00:29:59;;;;;;;9.32;3.42;;;4.30;99.90;;;;;;5043293;28;20213;-88
2022/04/17 00:32:25;;;;;;;3.30;3.00;;;;;;;;;;5041328;28;20176;-85
2022/04/17 00:34:51;;;;;;;4.10;3.30;;;;;;;;;;5044360;28;20173;-88
2022/04/17 00:37:17;;;;;;;4.70;3.38;;;;;;;;;;5043877;28;20931;-88
2022/04/17 00:39:43;;;;;;;4.87;3.47;;;4.60;99.90;;;;;;5054459;28;20174;-86
2022/04/17 00:42:10;;;;;;;6.80;3.63;;;;;;;;;;5049863;28;20972;-84
2022/04/17 00:44:37;;;;;;;5.90;3.58;;;4.60;99.90;;;;;;5032358;28;20265;-85
2022/04/17 00:47:04;;;;;;;4.15;3.38;;;4.50;99.90;;;;;;5058758;28;20183;-88
2022/04/17 00:49:29;;;;;;;7.13;3.25;;;4.60;99.90;;;;;;5042501;28;20173;-88
2022/04/17 00:51:55;;;;;;;6.13;3.47;;;;;;;;;;5041662;28;20630;-87
2022/04/17 00:54:23;;;;;;;3.40;3.10;;;4.60;99.90;;;;;;5042425;28;20697;-89
2022/04/17 00:56:49;;;;;;;4.70;3.05;;;4.60;99.90;;;;;;5040084;28;20173;-87
2022/04/17 00:59:15;;;;;;;15.20;3.67;;;4.60;99.90;;;;;;5043426;28;20200;-85
2022/04/17 01:01:41;;;;;;;4.68;3.00;;;;;;;;;;5033193;28;20468;-83
2022/04/17 01:04:07;;;;;;;5.22;3.50;;;4.60;99.90;;;;;;5032332;28;20535;-84
2022/04/17 01:06:33;;;;;;;4.13;3.17;;;;;;;;;;5047692;28;20178;-84
2022/04/17 01:09:00;;;;;;;3.92;2.97;;;4.60;99.90;;;;;;5040031;28;20181;-86
2022/04/17 01:11:26;;;;;;;5.93;3.58;;;4.60;99.90;;;;;;5038998;28;20198;-86
2022/04/17 01:13:53;;;;;;;4.13;3.25;;;4.60;99.90;;;;;;5048455;28;20170;-89
2022/04/17 01:16:22;;;;;;;6.68;3.33;;;7.30;99.90;;;;;;5052577;28;20672;-84
2022/04/17 01:19:04;;;;;;;3.30;2.92;;;4.30;99.90;;;;;;5049727;28;20162;-87
2022/04/17 01:21:34;;;;;;;3.28;2.97;;;4.30;99.90;;;;;;5041269;28;20212;-87
2022/04/17 01:26:56;;;;;;;4.78;2.85;;;4.20;99.90;;;;;;5055090;28;20176;-86
2022/04/17 01:29:32;;;;;;;6.25;3.63;;;4.30;99.90;;;;;;5053783;28;20185;-86
2022/04/17 01:31:59;;;;;;;3.33;2.92;;;4.30;99.90;;;;;;5044476;28;20176;-88
2022/04/17 01:34:25;;;;;;;6.50;3.72;;;5.30;99.90;;;;;;5044714;28;20188;-87
2022/04/17 01:36:51;;;;;;;5.10;3.47;;;;;;;;;;5035302;28;20188;-84
2022/04/17 01:39:18;;;;;;;9.02;3.08;;;4.00;99.90;;;;;;5044634;28;20436;-86
2022/04/17 01:41:45;;;;;;;3.63;3.00;;;3.70;99.90;;;;;;5040610;28;20210;-85
2022/04/17 01:44:10;;;;;;;4.25;3.38;;;4.20;99.90;;;;;;5060068;28;20185;-88
2022/04/17 01:46:36;;;;;;;3.27;2.70;;;4.10;99.90;;;;;;5034579;28;20189;-86
2022/04/17 01:49:03;;;;;;;4.40;3.00;;;4.10;99.90;;;;;;5044751;28;20180;-86
2022/04/17 01:51:38;;;;;;;4.03;2.90;;;4.10;99.90;;;;;;5035818;28;20204;-88
2022/04/17 01:54:04;;;;;;;6.07;2.70;;;;;;;;;;5039795;28;20542;-85
2022/04/17 01:56:30;;;;;;;4.60;2.75;;;;;;;;;;5046559;28;20165;-89
2022/04/17 01:58:56;;;;;;;2.45;2.25;;;;;;;;;;5045789;28;20201;-86
2022/04/17 02:01:21;;;;;;;5.78;2.83;;;4.00;99.90;;;;;;5044578;28;20283;-87
2022/04/17 02:03:47;;;;;;;4.00;2.67;;;;;;;;;;5038570;28;20215;-86
2022/04/17 02:06:13;;;;;;;4.53;3.07;;;;;;;;;;5040069;28;20182;-86
2022/04/17 02:08:39;;;;;;;5.50;3.40;;;;;;;;;;5043867;28;20516;-86
2022/04/17 02:11:05;;;;;;;6.63;3.20;;;;;;;;;;5043553;28;20427;-89
2022/04/17 02:13:31;;;;;;;2.73;2.50;;;4.00;99.90;;;;;;5042196;28;20428;-86
2022/04/17 02:15:57;;;;;;;3.70;2.90;;;5.20;99.90;;;;;;5032076;28;20514;-87
2022/04/17 02:18:25;;;;;;;3.13;2.60;;;4.00;99.90;;;;;;5036058;28;20197;-86
2022/04/17 02:20:52;;;;;;;3.60;2.35;;;4.00;99.90;;;;;;5035783;28;20358;-87
2022/04/17 02:23:17;;;;;;;4.85;2.33;;;4.00;99.90;;;;;;5040776;28;20302;-87
2022/04/17 02:25:43;;;;;;;4.23;2.63;;;4.10;99.90;;;;;;5035884;28;20276;-87
2022/04/17 02:28:09;;;;;;;2.63;2.20;;;5.60;99.90;;;;;;5031894;28;20227;-88
2022/04/17 02:30:35;;;;;;;7.10;3.13;;;;;;;;;;5035480;28;20224;-86
2022/04/17 02:33:01;;;;;;;4.15;2.90;;;4.20;99.90;;;;;;5038176;28;20184;-86
2022/04/17 02:35:27;;;;;;;2.80;2.50;;;6.70;99.90;;;;;;5044644;28;20181;-89
2022/04/17 02:37:53;;;;;;;2.13;1.93;;;;;;;;;;5034553;28;20200;-87
2022/04/17 02:40:19;;;;;;;2.95;2.65;;;4.20;99.90;;;;;;5037921;28;20209;-87
2022/04/17 02:42:45;;;;;;;3.73;2.63;;;;;;;;;;5036697;28;20209;-84
2022/04/17 02:45:10;;;;;;;7.07;3.63;;;4.10;99.90;;;;;;5036502;28;20178;-88
2022/04/17 02:47:46;;;;;;;5.87;3.23;;;;;;;;;;5031996;28;20178;-87
2022/04/17 02:50:15;;;;;;;2.75;2.08;;;4.00;99.90;;;;;;5030608;28;20227;-87
2022/04/17 02:52:41;;;;;;;7.28;3.20;;;4.00;99.90;;;;;;5051359;28;20244;-87
2022/04/17 02:55:07;;;;;;;4.40;2.63;;;4.00;99.90;;;;;;5036207;28;20185;-89
2022/04/17 02:57:33;;;;;;;3.90;2.77;;;3.90;99.90;;;;;;5039792;28;20955;-86
2022/04/17 02:59:59;;;;;;;4.93;3.00;;;3.80;99.90;;;;;;5032623;28;20514;-85
2022/04/17 03:07:54;;;;;;;4.75;2.72;;;3.10;99.90;;;;;;5054376;28;20701;-87
2022/04/17 03:10:21;;;;;;;4.40;2.80;;;3.10;99.90;;;;;;5042884;28;20193;-88
2022/04/17 03:12:47;;;;;;;2.20;1.98;;;2.90;99.90;;;;;;5036175;28;20415;-87
2022/04/17 03:15:13;;;;;;;8.60;3.22;;;2.70;99.90;;;;;;5038555;28;20193;-87
2022/04/17 03:17:39;;;;;;;5.83;2.90;;;;;;;;;;5033968;28;20174;-84
2022/04/17 03:20:07;;;;;;;3.35;2.63;;;2.50;99.90;;;;;;5040566;28;20456;-86
2022/04/17 03:22:32;;;;;;;8.50;3.15;;;2.40;99.90;;;;;;5040519;28;20591;-85
2022/04/17 03:25:00;;;;;;;5.90;3.33;;;2.50;99.90;;;;;;5036372;28;20169;-86
2022/04/17 03:27:26;;;;;;;3.00;2.75;;;2.60;99.90;;;;;;5041803;28;20237;-84
2022/04/17 03:29:52;;;;;;;3.30;2.60;;;;;;;;;;5040787;28;20207;-88
2022/04/17 03:32:18;;;;;;;3.97;2.78;;;2.70;99.90;;;;;;5040671;28;20431;-84
2022/04/17 03:34:47;;;;;;;5.80;3.30;;;3.40;99.90;;;;;;5035149;28;20169;-82
2022/04/17 03:37:16;;;;;;;5.25;3.53;;;2.50;99.90;;;;;;5035287;28;20185;-86
2022/04/17 03:39:43;;;;;;;3.25;2.55;;;2.60;99.90;;;;;;5034450;28;20666;-85
2022/04/17 03:42:09;;;;;;;3.17;2.60;;;;;;;;;;5041776;28;20215;-83
2022/04/17 03:44:35;;;;;;;4.63;2.88;;;;;;;;;;5040030;28;20190;-85
2022/04/17 03:47:03;;;;;;;11.40;2.90;;;2.40;99.90;;;;;;5041634;28;20230;-86
2022/04/17 03:49:29;;;;;;;5.50;3.63;;;;;;;;;;5034091;28;20617;-86
2022/04/17 03:51:55;;;;;;;4.72;3.50;;;2.40;99.90;;;;;;5043042;28;20177;-85
2022/04/17 03:54:21;;;;;;;3.90;3.40;;;2.40;99.90;;;;;;5033481;28;20173;-86
2022/04/17 03:56:47;;;;;;;4.00;3.40;;;2.50;99.90;;;;;;5035629;28;20794;-86
2022/04/17 03:59:14;;;;;;;4.47;2.92;;;2.40;99.90;;;;;;5052144;28;20173;-87
2022/04/17 04:01:40;;;;;;;5.78;3.22;;;2.10;99.90;;;;;;5035785;28;20838;-85
2022/04/17 04:04:23;;;;;;;7.53;3.80;;;2.00;99.90;;;;;;5055158;28;20178;-86
2022/04/17 04:06:50;;;;;;;5.78;3.70;;;;;;;;;;5033253;28;20177;-85
2022/04/17 04:09:16;;;;;;;5.35;4.00;;;;;;;;;;5055653;28;20229;-89
2022/04/17 04:11:44;;;;;;;5.80;3.63;;;1.80;99.90;;;;;;5039505;28;20197;-86
2022/04/17 04:14:10;;;;;;;7.03;3.65;;;2.00;99.90;;;;;;5042890;28;20170;-85
2022/04/17 04:16:36;;;;;;;5.22;3.20;;;1.70;99.90;;;;;;5055168;28;20165;-86
2022/04/17 04:19:05;;;;;;;6.50;3.40;;;1.40;99.90;;;;;;5041947;28;20661;-85
2022/04/17 04:21:30;;;;;;;7.20;3.30;;;1.50;99.90;;;;;;5042813;28;20439;-87
2022/04/17 04:23:56;;;;;;;7.70;4.03;;;;;;;;;;5060094;28;20236;-87
2022/04/17 04:26:22;;;;;;;3.83;3.07;;;;;;;;;;5042618;28;20432;-85
2022/04/17 04:28:48;;;;;;;5.53;3.67;;;;;;;;;;5036707;28;20521;-87
2022/04/17 04:31:15;;;;;;;3.72;3.40;;;;;;;;;;5037576;28;20448;-87
2022/04/17 04:33:42;;;;;;;6.10;4.13;;;1.30;99.90;;;;;;5033404;28;20177;-86
2022/04/17 04:36:11;;;;;;;4.78;2.90;;;1.40;99.90;;;;;;5040758;28;20177;-84
2022/04/17 04:38:37;;;;;;;4.82;3.35;;;-1.50;99.90;;;;;;5026437;28;20212;-86
2022/04/17 04:41:03;;;;;;;4.20;3.30;;;1.40;99.90;;;;;;5035279;28;20213;-86
2022/04/17 04:43:29;;;;;;;3.47;3.17;;;1.40;99.90;;;;;;5023651;28;20208;-82
2022/04/17 04:46:07;;;;;;;3.95;3.60;;;1.40;99.90;;;;;;5040504;28;20165;-83
2022/04/17 04:51:23;;;;;;;4.78;3.10;;;2.20;99.90;;;;;;5046489;28;20213;-82
2022/04/17 04:53:49;;;;;;;6.35;3.95;;;3.80;99.90;;;;;;5026435;28;20204;-87
2022/04/17 04:56:18;;;;;;;7.07;3.80;;;5.40;99.90;;;;;;5023500;28;20205;-81
2022/04/17 04:58:44;;;;;;;4.60;3.20;;;7.00;99.90;;;;;;5040200;28;20272;-87
2022/04/17 05:01:10;;;;;;;6.40;3.53;;;8.50;99.90;;;;;;5025005;28;20209;-85
2022/04/17 05:03:36;;;;;;;3.80;3.40;;;10.10;99.90;;;;;;5032327;28;20202;-89
2022/04/17 05:06:02;;;;;;;6.60;3.53;;;11.40;99.90;;;;;;5047779;28;20819;-89
2022/04/17 05:08:28;;;;;;;6.10;3.55;;;13.00;99.90;;;;;;5029391;28;20178;-88
2022/04/17 05:10:54;;;;;;;4.20;3.70;;;14.60;99.90;;;;;;5025530;28;21586;-87
2022/04/17 05:13:19;;;;;;;5.13;3.57;;;16.10;97.00;;;;;;5043705;28;20198;-86
2022/04/17 05:15:45;;;;;;;3.77;3.40;;;;;;;;;;5033308;28;20907;-87
2022/04/17 05:18:11;;;;;;;5.23;4.10;;;;;;;;;;5029430;28;20185;-88
2022/04/17 05:20:37;;;;;;;4.83;3.80;;;;;;;;;;5036272;28;20831;-87
2022/04/17 05:23:26;;;;;;;3.50;3.10;;;20.40;66.60;;;;;;5038008;28;20455;-88
2022/04/17 05:25:54;;;;;;;6.57;4.10;;;22.40;57.80;;;;;;5047618;28;20408;-88
2022/04/17 05:28:21;;;;;;;5.97;3.90;;;;;;;;;;5048228;28;20428;-90
2022/04/17 05:30:47;;;;;;;5.43;2.93;;;;;;;;;;5034248;28;20464;-87
2022/04/17 05:33:13;;;;;;;6.43;4.07;;;;;;;;;;5031786;28;20436;-87
2022/04/17 05:35:39;;;;;;;5.70;3.60;;;;;;;;;;5034536;28;20446;-89
2022/04/17 05:38:07;;;;;;;3.97;3.60;;;25.60;47.70;;;;;;5037644;28;21201;-90
2022/04/17 05:40:35;;;;;;;5.00;4.17;;;27.40;42.60;;;;;;5031762;28;20483;-87
2022/04/17 05:43:01;;;;;;;6.00;4.30;;;;;;;;;;5023419;28;20460;-87
2022/04/17 05:45:27;;;;;;;4.97;4.00;;;;;;;;;;5039733;28;20442;-86
2022/04/17 05:47:53;;;;;;;6.07;4.93;;;;;;;;;;5028761;28;20807;-87
2022/04/17 05:50:19;;;;;;;5.00;4.60;;;;;;;;;;5029480;28;20455;-86
2022/04/17 05:52:45;;;;;;;5.70;5.30;;;;;;;;;;5020304;28;20440;-86
2022/04/17 05:55:12;;;;;;;6.23;5.63;;;30.50;32.20;;;;;;5036502;28;20440;-85
2022/04/17 05:57:38;;;;;;;6.10;5.70;;;;;;;;;;5040611;28;20442;-87
2022/04/17 06:00:08;;;;;;;7.60;7.10;;;29.20;29.60;;;;;;5039502;28;21112;-86
2022/04/17 06:02:34;;;;;;;10.03;6.77;;;;;;;;;;5029751;28;20472;-85
2022/04/17 06:05:00;;;;;;;8.67;7.93;;;;;;;;;;5025719;28;20527;-85
2022/04/17 06:07:27;;;;;;;7.63;6.10;;;26.10;32.90;;;;;;5030693;28;20505;-83
2022/04/17 06:09:52;;;;;;;7.10;6.60;;;26.10;33.50;;;;;;5022445;28;20488;-84
2022/04/17 06:12:18;;;;;;;6.93;6.43;;;26.50;33.20;;;;;;5022535;28;20483;-84
2022/04/17 06:14:44;;;;;;;7.97;6.73;;;;;;;;;;5028696;28;20663;-90
2022/04/17 06:17:10;;;;;;;7.63;7.03;;;;;;;;;;5042536;28;20187;-86
2022/04/17 06:19:36;;;;;;;7.50;6.90;;;;;;;;;;5024974;28;20444;-88
2022/04/17 06:22:02;;;;;;;6.83;6.33;;;;;;;;;;5021321;28;21046;-86
2022/04/17 06:24:28;;;;;;;7.00;6.30;;;;;;;;;;5023798;28;20441;-86
2022/04/17 06:26:54;;;;;;;7.87;7.37;;;;;;;;;;5038233;28;20822;-86
2022/04/17 06:29:20;;;;;;;7.13;6.50;;;;;;;;;;5040830;28;21129;-87
2022/04/17 06:31:46;;;;;;;7.50;6.90;;;;;;;;;;5038238;28;20446;-88
2022/04/17 06:34:12;;;;;;;7.60;7.00;;;28.30;29.80;;;;;;5049586;28;20515;-87
2022/04/17 06:36:39;;;;;;;9.37;8.47;;;28.30;30.20;;;;;;5034457;28;20474;-85
2022/04/17 06:39:05;;;;;;;7.93;7.27;;;28.50;30.40;;;;;;5034383;28;20957;-82
2022/04/17 06:41:30;;;;;;;8.17;7.63;;;28.40;30.50;;;;;;5029298;28;20447;-79
2022/04/17 06:43:56;;;;;;;8.20;7.57;;;27.60;30.90;;;;;;5029490;28;20468;-81
2022/04/17 06:46:21;;;;;;;8.67;7.67;;;26.90;31.40;;;;;;5041221;28;20181;-80
2022/04/17 06:48:47;;;;;;;7.67;6.97;;;26.10;31.90;;;;;;5032229;28;20185;-86
2022/04/17 06:51:13;;;;;;;7.67;6.90;;;;;;;;;;5025136;28;20227;-86
2022/04/17 06:53:39;;;;;;;7.90;7.30;;;;;;;;;;5041733;28;20184;-79
2022/04/17 06:56:05;;;;;;;7.60;6.93;;;;;;;;;;5041236;28;20463;-83
2022/04/17 06:58:30;;;;;;;8.20;7.60;;;26.20;32.60;;;;;;5024360;28;20432;-85
2022/04/17 07:00:56;;;;;;;7.90;6.90;;;26.50;32.60;;;;;;5042746;28;20502;-82
2022/04/17 07:03:21;;;;;;;6.70;6.20;;;27.70;32.40;;;;;;5034884;28;20213;-86
2022/04/17 07:05:47;;;;;;;7.70;7.10;;;;;;;;;;5044448;28;20269;-86
2022/04/17 07:08:13;;;;;;;7.10;6.50;;;;;;;;;;5027909;28;20169;-87
2022/04/17 07:10:40;;;;;;;7.70;7.10;;;27.50;31.50;;;;;;5033602;28;20484;-82
2022/04/17 07:13:08;;;;;;;7.67;7.07;;;27.40;32.00;;;;;;5035737;28;20440;-87
2022/04/17 07:15:34;;;;;;;6.60;6.10;;;;;;;;;;5027350;28;20440;-84
2022/04/17 07:18:00;;;;;;;6.53;5.90;;;;;;;;;;5047047;28;20436;-86
2022/04/17 07:20:26;;;;;;;5.70;5.20;;;;;;;;;;5031426;28;20521;-80
2022/04/17 07:22:52;;;;;;;6.83;5.70;;;;;;;;;;5043761;28;20451;-85
2022/04/17 07:25:19;;;;;;;6.80;6.40;;;;;;;;;;5028086;28;20438;-86
2022/04/17 07:27:47;;;;;;;8.10;6.90;;;27.90;30.60;;;;;;5046857;28;20431;-82
2022/04/17 07:30:15;;;;;;;6.33;5.83;;;27.80;29.90;;;;;;5037437;28;20526;-81
2022/04/17 07:32:43;;;;;;;6.40;6.00;;;27.00;28.80;;;;;;5033154;28;20436;-83
2022/04/17 07:35:11;;;;;;;5.63;5.13;;;27.00;29.20;;;;;;5047592;28;20439;-86
2022/04/17 07:37:37;;;;;;;6.03;5.53;;;25.50;29.90;;;;;;5038151;28;20440;-84
2022/04/17 07:40:09;;;;;;;6.53;6.13;;;23.20;32.10;;;;;;5025788;28;20544;-84
2022/04/17 07:42:35;;;;;;;6.47;5.97;;;23.10;32.60;;;;;;5045475;28;20458;-85
2022/04/17 07:45:00;;;;;;;6.73;5.23;;;22.40;34.00;;;;;;5048086;28;20421;-84
2022/04/17 07:47:26;;;;;;;5.47;4.97;;;20.00;34.00;;;;;;5027570;28;20231;-83
2022/04/17 07:49:51;;;;;;;4.50;4.13;;;19.90;34.50;;;;;;5055132;28;20227;-81
2022/04/17 07:52:17;;;;;;;4.47;4.17;;;19.20;35.10;;;;;;5032799;28;20882;-83
2022/04/17 07:54:43;;;;;;;4.93;4.53;;;;;;;;;;5045970;28;20548;-83
2022/04/17 07:57:13;;;;;;;5.03;4.73;;;19.00;34.70;;;;;;5051059;28;20600;-82
2022/04/17 07:59:40;;;;;;;4.73;4.30;;;19.70;35.50;;;;;;5035316;28;20427;-85
2022/04/17 08:02:11;;;;;;;11.70;4.27;;;19.80;36.20;;;;;;5036562;28;20467;-82
2022/04/17 08:04:40;;;;;;;6.40;4.10;;;20.00;35.00;;;;;;5056978;28;20502;-81
2022/04/17 08:07:06;;;;;;;5.30;4.83;;;20.00;36.20;;;;;;5051393;28;20416;-82
2022/04/17 08:09:32;;;;;;;4.90;4.40;;;20.40;33.70;;;;;;5052300;28;20424;-80
2022/04/17 08:11:59;;;;;;;4.67;4.23;;;19.80;33.90;;;;;;5038259;28;20468;-84
2022/04/17 08:14:26;;;;;;;4.33;4.13;;;19.80;34.20;;;;;;5044685;28;20543;-84
2022/04/17 08:16:51;;;;;;;5.27;4.73;;;19.70;34.70;;;;;;5042001;28;20414;-84
2022/04/17 08:19:17;;;;;;;4.90;4.50;;;19.20;35.80;;;;;;5054082;28;20754;-83
2022/04/17 08:21:42;;;;;;;4.47;3.70;;;18.80;35.20;;;;;;5052997;28;20208;-81
2022/04/17 08:24:08;;;;;;;4.50;4.20;;;18.80;36.00;;;;;;5027631;28;20170;-84
2022/04/17 08:26:33;;;;;;;4.80;4.40;;;19.70;37.20;;;;;;5058981;28;20181;-84
2022/04/17 08:29:02;;;;;;;4.20;3.90;;;20.10;36.30;;;;;;5046050;28;20173;-80
2022/04/17 08:31:28;;;;;;;4.80;4.40;;;19.40;37.20;;;;;;5047866;28;20691;-84
2022/04/17 08:33:54;;;;;;;4.53;4.13;;;19.20;35.50;;;;;;5053701;28;20431;-82
2022/04/17 08:36:20;;;;;;;3.97;3.67;;;19.00;35.40;;;;;;5046802;28;20177;-82
2022/04/17 08:38:45;;;;;;;5.87;4.40;;;18.40;34.90;;;;;;5053396;28;20440;-82
2022/04/17 08:41:11;;;;;;;7.17;3.63;;;17.60;36.10;;;;;;5038004;28;20197;-82
2022/04/17 08:43:37;;;;;;;5.60;4.30;;;17.60;36.80;;;;;;5042414;28;20268;-83
2022/04/17 08:46:03;;;;;;;4.83;4.13;;;17.40;37.00;;;;;;5036380;28;20421;-83
2022/04/17 08:48:31;;;;;;;4.43;4.00;;;17.00;36.10;;;;;;5035138;28;20420;-83
2022/04/17 08:50:59;;;;;;;4.00;3.70;;;19.50;39.50;;;;;;5049355;28;20197;-82
2022/04/17 08:53:27;;;;;;;4.30;3.93;;;16.80;35.90;;;;;;5051894;28;20431;-82
2022/04/17 08:55:53;;;;;;;9.80;3.80;;;17.10;36.80;;;;;;5047408;28;20431;-81
2022/04/17 08:58:18;;;;;;;3.53;3.33;;;17.30;36.80;;;;;;5028443;28;20530;-81
2022/04/17 09:00:44;;;;;;;3.60;3.30;;;17.50;37.20;;;;;;5037242;28;20285;-82
2022/04/17 09:03:10;;;;;;;4.50;4.13;;;18.00;37.10;;;;;;5034541;28;20205;-81
2022/04/17 09:05:37;;;;;;;5.67;4.23;;;18.80;37.20;;;;;;5047908;28;20184;-83
2022/04/17 09:08:15;;;;;;;4.40;4.10;;;18.80;35.50;;;;;;5028497;28;20518;-82
2022/04/17 09:10:41;;;;;;;3.80;3.60;;;19.10;36.90;;;;;;5033038;28;20454;-80
2022/04/17 09:13:08;;;;;;;6.20;4.30;;;19.90;36.20;;;;;;5042372;28;20913;-83
2022/04/17 09:15:39;;;;;;;4.00;3.60;;;20.00;34.30;;;;;;5041703;28;20497;-79
2022/04/17 09:18:07;;;;;;;6.97;4.00;;;20.20;34.20;;;;;;5049700;28;20874;-83
2022/04/17 09:20:33;;;;;;;3.40;3.20;;;19.90;34.00;;;;;;5029702;28;20459;-83
2022/04/17 09:23:00;;;;;;;3.20;2.90;;;19.50;34.80;;;;;;5048830;28;21209;-85
2022/04/17 09:25:26;;;;;;;3.27;3.17;;;20.10;36.00;;;;;;5042952;28;20700;-82
2022/04/17 09:27:56;;;;;;;3.33;3.13;;;19.70;31.80;;;;;;5032121;28;20471;-84
2022/04/17 09:30:27;;;;;;;4.40;3.03;;;18.70;32.10;;;;;;5027596;28;20465;-83
2022/04/17 09:32:54;;;;;;;3.53;3.30;;;18.80;32.70;;;;;;5034539;28;20440;-84
2022/04/17 09:35:24;;;;;;;3.53;3.23;;;18.40;32.50;;;;;;5035965;28;20427;-83
2022/04/17 09:37:54;;;;;;;3.57;3.37;;;18.10;33.50;;;;;;5025110;28;20435;-84
2022/04/17 09:40:20;;;;;;;4.20;3.90;;;17.50;33.30;;;;;;5033742;28;20440;-84
2022/04/17 09:42:50;;;;;;;5.70;4.00;;;17.30;34.40;;;;;;5041914;28;20458;-82
2022/04/17 09:45:16;;;;;;;4.50;4.10;;;17.50;35.70;;;;;;5032158;28;20528;-83
2022/04/17 09:47:55;;;;;;;4.40;4.10;;;18.10;35.10;;;;;;5042977;28;20423;-80
2022/04/17 09:50:35;;;;;;;3.03;2.83;;;18.80;34.60;;;;;;5031910;28;20215;-82
2022/04/17 09:53:05;;;;;;;5.43;3.83;;;19.50;33.60;;;;;;5023502;28;20811;-85
2022/04/17 09:55:33;;;;;;;4.10;3.80;;;19.80;33.60;;;;;;5041751;28;20464;-85
2022/04/17 09:57:59;;;;;;;5.37;4.90;;;20.90;34.60;;;;;;5030975;28;20436;-85
2022/04/17 10:00:26;;;;;;;4.43;4.13;;;19.80;33.70;;;;;;5028342;28;21518;-86
2022/04/17 10:02:52;;;;;;;8.10;4.13;;;19.90;34.00;;;;;;5025208;28;20463;-84
2022/04/17 10:05:19;;;;;;;3.70;3.50;;;20.00;33.10;;;;;;5022312;28;20431;-82
2022/04/17 10:07:50;;;;;;;10.40;4.27;;;20.40;34.00;;;;;;5042597;28;20181;-84
2022/04/17 10:10:16;;;;;;;4.83;4.37;;;20.80;33.10;;;;;;5028223;28;20466;-83
2022/04/17 10:12:45;;;;;;;6.63;5.30;;;21.10;33.50;;;;;;5033493;28;20463;-83
2022/04/17 10:15:11;;;;;;;4.60;4.30;;;20.80;34.70;;;;;;5035852;28;20483;-84
2022/04/17 10:17:38;;;;;;;4.63;4.23;;;20.80;31.90;;;;;;5037467;28;20440;-82
2022/04/17 10:20:14;;;;;;;4.70;4.40;;;19.90;33.40;;;;;;5037861;28;20542;-81
2022/04/17 10:22:43;;;;;;;5.07;4.60;;;17.60;35.90;;;;;;5019009;28;20517;-85
2022/04/17 10:25:10;;;;;;;4.43;4.07;;;16.70;37.40;;;;;;5021344;28;20510;-83
2022/04/17 10:27:46;;;;;;;3.90;3.67;;;16.00;37.80;;;;;;5038812;28;20459;-80
2022/04/17 10:30:23;;;;;;;3.53;3.33;;;15.70;39.70;;;;;;5041269;28;20443;-82
2022/04/17 10:33:27;;;;;;;3.50;3.30;;;15.70;40.60;;;;;;5026669;28;20439;-83
2022/04/17 10:36:18;;;;;;;6.33;4.97;;;15.50;39.20;;;;;;5030018;28;20743;-85
2022/04/17 10:38:59;;;;;;;4.50;4.20;;;14.90;38.80;;;;;;5034514;28;20431;-84
2022/04/17 10:41:25;;;;;;;3.80;3.60;;;14.80;40.00;;;;;;5041945;28;20475;-84
2022/04/17 10:43:50;;;;;;;4.50;4.07;;;15.20;42.00;;;;;;5047674;28;20467;-84
2022/04/17 10:46:16;;;;;;;5.00;4.30;;;15.40;39.10;;;;;;5025532;28;20470;-86
2022/04/17 10:48:46;;;;;;;4.03;3.70;;;15.40;39.60;;;;;;5046182;28;20216;-82
2022/04/17 10:51:24;;;;;;;5.07;4.67;;;15.30;40.40;;;;;;5026458;28;21053;-80
2022/04/17 10:54:03;;;;;;;4.10;3.80;;;15.30;40.50;;;;;;5028707;28;20517;-84
2022/04/17 10:56:33;;;;;;;4.00;3.80;;;15.00;40.40;;;;;;5022761;28;20497;-85
2022/04/17 10:59:00;;;;;;;4.38;3.97;;;14.80;39.60;;;;;;5025633;28;20432;-83
2022/04/17 11:02:07;;;;;;;4.22;3.92;;;14.70;39.70;;;;;;5025309;28;20203;-84
2022/04/17 11:04:50;;;;;;;4.72;4.07;;;14.80;41.80;;;;;;4989647;28;20297;-81
2022/04/17 11:07:15;;;;;;;4.00;3.70;;;15.00;40.00;;;;;;5032995;28;20270;-81
2022/04/17 11:09:46;;;;;;;4.03;3.73;;;15.10;40.40;;;;;;5041708;28;20951;-83
2022/04/17 11:12:17;;;;;;;4.30;4.00;;;15.10;41.40;;;;;;5041356;28;20157;-82
2022/04/17 11:15:01;;;;;;;3.73;3.43;;;15.10;41.60;;;;;;5020607;28;20449;-84
2022/04/17 11:17:29;;;;;;;4.00;3.60;;;15.20;41.90;;;;;;5021973;28;20432;-86
2022/04/17 11:19:57;;;;;;;3.87;3.57;;;15.40;41.50;;;;;;5045645;28;20473;-85
2022/04/17 11:22:31;;;;;;;3.60;3.30;;;15.40;40.40;;;;;;5035887;28;20455;-87
2022/04/17 11:24:57;;;;;;;3.67;3.40;;;15.50;40.40;;;;;;5036922;28;20437;-85
2022/04/17 11:27:31;;;;;;;4.73;4.37;;;15.70;41.60;;;;;;5034158;28;20424;-81
2022/04/17 11:30:01;;;;;;;4.37;3.43;;;15.90;41.00;;;;;;5034400;28;20830;-86
2022/04/17 11:32:29;;;;;;;5.40;4.17;;;16.00;40.20;;;;;;5043300;28;20443;-88
2022/04/17 11:35:02;;;;;;;4.70;3.80;;;16.00;41.20;;;;;;5021622;28;20451;-82
2022/04/17 11:37:29;;;;;;;4.13;3.80;;;16.20;39.80;;;;;;5027053;28;20806;-81
2022/04/17 11:39:58;;;;;;;4.17;3.80;;;16.40;40.60;;;;;;5038500;28;20533;-83
2022/04/17 11:42:28;;;;;;;3.13;2.93;;;16.50;42.20;;;;;;5023645;28;20490;-82
2022/04/17 11:45:00;;;;;;;3.73;3.53;;;16.30;38.10;;;;;;5042093;28;20482;-86
2022/04/17 11:47:26;;;;;;;3.00;2.73;;;;;;;;;;5029642;28;20548;-84
2022/04/17 11:49:52;;;;;;;6.13;3.63;;;16.60;40.00;;;;;;5031692;28;20459;-83
2022/04/17 11:52:19;;;;;;;4.00;3.67;;;16.90;40.00;;;;;;5031389;28;20432;-83
2022/04/17 11:54:46;;;;;;;3.93;3.53;;;17.20;41.80;;;;;;5025588;28;20189;-84
2022/04/17 11:57:12;;;;;;;3.57;3.27;;;17.30;38.80;;;;;;5045468;28;20586;-83
2022/04/17 11:59:49;;;;;;;4.20;3.80;;;16.20;37.40;;;;;;5026043;28;20441;-86
2022/04/17 12:02:16;;;;;;;3.67;2.90;;;15.90;38.80;;;;;;5033058;28;20459;-86
2022/04/17 12:04:47;;;;;;;3.70;3.50;;;15.90;39.40;;;;;;5034079;28;20436;-84
2022/04/17 12:07:17;;;;;;;6.30;3.30;;;15.70;40.10;;;;;;5026288;28;20440;-86
2022/04/17 12:09:43;;;;;;;3.57;3.37;;;15.70;41.20;;;;;;5041552;28;21050;-86
2022/04/17 12:12:17;;;;;;;5.33;3.13;;;15.70;42.00;;;;;;5034102;28;20428;-84
2022/04/17 12:14:44;;;;;;;3.53;3.23;;;17.30;41.90;;;;;;5027126;28;20181;-85
2022/04/17 12:17:10;;;;;;;6.50;3.57;;;15.80;40.20;;;;;;5036582;28;20482;-87
2022/04/17 12:19:36;;;;;;;4.23;3.67;;;;;;;;;;5035149;28;20440;-86
2022/04/17 12:22:12;;;;;;;3.73;3.40;;;15.60;41.00;;;;;;5043258;28;20910;-86
2022/04/17 12:24:38;;;;;;;3.70;3.23;;;15.60;40.90;;;;;;5047906;28;20430;-87
2022/04/17 12:27:04;;;;;;;3.73;3.40;;;15.70;39.20;;;;;;5046384;28;20420;-88
2022/04/17 12:29:31;;;;;;;3.63;3.33;;;;;;;;;;5043597;28;20186;-86
2022/04/17 12:31:57;;;;;;;4.20;3.80;;;15.70;39.30;;;;;;5028088;28;20792;-81
2022/04/17 12:34:23;;;;;;;4.13;3.10;;;15.80;38.60;;;;;;5031845;28;20439;-82
2022/04/17 12:36:49;;;;;;;2.90;2.70;;;16.00;37.90;;;;;;5027053;28;20589;-83
2022/04/17 12:39:15;;;;;;;2.93;2.73;;;16.10;40.10;;;;;;5024899;28;20432;-85
2022/04/17 12:41:42;;;;;;;3.23;3.03;;;16.30;40.90;;;;;;5032714;28;20197;-85
2022/04/17 12:44:11;;;;;;;5.17;4.73;;;16.30;37.60;;;;;;5042145;28;21111;-87
2022/04/17 12:46:42;;;;;;;20.67;14.97;;;16.40;38.60;;;;;;5040711;28;20436;-86
2022/04/17 12:49:12;;;;;;;36.27;18.70;;;16.60;40.40;;;;;;5027016;28;20411;-85
2022/04/17 12:51:39;;;;;;;4.33;3.83;;;16.30;35.80;;;;;;5045583;28;20458;-87
2022/04/17 12:54:10;;;;;;;8.17;5.83;;;16.30;36.30;;;;;;5024446;28;20421;-85
2022/04/17 12:56:37;;;;;;;3.20;3.00;;;16.40;35.90;;;;;;5025615;28;20412;-83
2022/04/17 12:59:03;;;;;;;3.33;3.00;;;16.40;36.30;;;;;;5037470;28;20510;-87
2022/04/17 13:01:30;;;;;;;4.00;3.60;;;16.60;38.20;;;;;;5042890;28;21539;-85
2022/04/17 13:04:10;;;;;;;5.27;4.77;;;16.60;36.30;;;;;;5023101;28;20467;-86
2022/04/17 13:06:36;;;;;;;5.13;4.73;;;;;;;;;;5025136;28;20428;-86
2022/04/17 13:09:05;;;;;;;3.83;3.57;;;16.70;36.20;;;;;;5044836;28;20460;-84
2022/04/17 13:11:39;;;;;;;4.47;4.07;;;16.80;37.20;;;;;;5026150;28;20444;-87
2022/04/17 13:14:05;;;;;;;4.60;4.20;;;16.60;33.90;;;;;;5039543;28;20431;-87
2022/04/17 13:16:32;;;;;;;3.67;3.37;;;16.40;36.80;;;;;;5025264;28;20431;-84
2022/04/17 13:18:58;;;;;;;3.50;3.30;;;16.50;36.70;;;;;;5034119;28;20176;-85
2022/04/17 13:21:25;;;;;;;3.67;3.47;;;16.40;34.70;;;;;;5040829;28;20481;-87
2022/04/17 13:23:50;;;;;;;3.47;3.27;;;16.40;36.70;;;;;;5047228;28;20209;-85
2022/04/17 13:26:19;;;;;;;6.03;5.50;;;16.30;36.60;;;;;;5027469;28;20489;-83